Time;durP1;ratioP1;P1;durP2;ratioP2;P2;SDS_P1;SDS_P2;PMS_P1;PMS_P2;Temp;Humidity;BMP_temperature;BMP_pressure;BME280_temperature;BME280_humidity;BME280_pressure;Samples;Min_cycle;Max_cycle;Signal;HPM_P1;HPM_P2
2023/01/24 00:00:43;;;;;;;16.43;7.10;;;1.30;99.90;;;;;;5070577;28;20189;-72
2023/01/24 00:03:12;;;;;;;13.70;6.77;;;1.30;99.90;;;;;;5063852;28;20276;-71
2023/01/24 00:05:39;;;;;;;14.40;7.77;;;1.30;99.90;;;;;;5051057;28;20872;-71
2023/01/24 00:08:04;;;;;;;11.20;6.20;;;1.30;99.90;;;;;;5050927;28;20440;-71
2023/01/24 00:10:31;;;;;;;14.87;6.70;;;1.30;99.90;;;;;;5056753;28;20458;-71
2023/01/24 00:12:57;;;;;;;18.07;7.80;;;1.30;99.90;;;;;;5068748;28;20234;-71
2023/01/24 00:15:23;;;;;;;15.60;6.57;;;1.20;99.90;;;;;;5065590;28;20419;-71
2023/01/24 00:17:48;;;;;;;19.17;7.37;;;1.30;99.90;;;;;;5056815;28;20443;-72
2023/01/24 00:20:15;;;;;;;15.90;7.20;;;1.20;99.90;;;;;;5051709;28;20266;-72
2023/01/24 00:22:40;;;;;;;13.27;7.73;;;1.20;99.90;;;;;;5070498;28;20703;-71
2023/01/24 00:25:06;;;;;;;15.77;7.40;;;1.20;99.90;;;;;;5063331;28;20416;-71
2023/01/24 00:27:34;;;;;;;17.30;9.20;;;1.30;99.90;;;;;;5064638;28;20260;-72
2023/01/24 00:29:59;;;;;;;14.63;7.97;;;1.30;99.90;;;;;;5060953;28;20495;-71
2023/01/24 00:32:25;;;;;;;18.10;7.60;;;1.30;99.90;;;;;;5067473;28;21010;-71
2023/01/24 00:34:51;;;;;;;12.67;7.37;;;1.30;99.90;;;;;;5059638;28;20629;-71
2023/01/24 00:37:16;;;;;;;22.60;7.97;;;1.30;99.90;;;;;;5069872;28;20189;-71
2023/01/24 00:39:42;;;;;;;11.03;5.57;;;1.20;99.90;;;;;;5065250;28;20185;-71
2023/01/24 00:42:07;;;;;;;12.77;7.40;;;1.20;99.90;;;;;;5057629;28;20213;-72
2023/01/24 00:44:33;;;;;;;16.03;7.50;;;1.20;99.90;;;;;;5063456;28;20213;-71
2023/01/24 00:46:59;;;;;;;14.60;7.83;;;1.20;99.90;;;;;;5073079;28;20200;-71
2023/01/24 00:49:24;;;;;;;13.70;7.53;;;1.30;99.90;;;;;;5062773;28;20188;-71
2023/01/24 00:51:50;;;;;;;18.03;7.50;;;1.20;99.90;;;;;;5059053;28;20260;-71
2023/01/24 00:54:15;;;;;;;14.90;7.07;;;1.30;99.90;;;;;;5062902;28;20223;-71
2023/01/24 00:56:41;;;;;;;16.17;8.67;;;1.20;99.90;;;;;;5059028;28;20181;-71
2023/01/24 00:59:07;;;;;;;12.90;6.97;;;1.30;99.90;;;;;;5062072;28;20215;-71
2023/01/24 01:01:32;;;;;;;12.80;6.60;;;1.30;99.90;;;;;;5072953;28;20197;-71
2023/01/24 01:03:58;;;;;;;18.03;7.87;;;1.20;99.90;;;;;;5071218;28;20223;-71
2023/01/24 01:06:24;;;;;;;19.73;8.10;;;1.20;99.90;;;;;;5059878;28;20177;-71
2023/01/24 01:08:51;;;;;;;15.30;7.07;;;1.20;99.90;;;;;;5054941;28;20174;-72
2023/01/24 01:11:17;;;;;;;15.90;7.33;;;1.20;99.90;;;;;;5068761;28;20425;-71
2023/01/24 01:13:47;;;;;;;15.63;8.47;;;1.20;99.90;;;;;;5068077;28;20420;-71
2023/01/24 01:16:18;;;;;;;16.40;7.23;;;1.20;99.90;;;;;;5072181;28;20421;-71
2023/01/24 01:18:45;;;;;;;18.23;7.63;;;1.20;99.90;;;;;;5063967;28;20423;-72
2023/01/24 01:21:13;;;;;;;22.47;8.70;;;1.20;99.90;;;;;;5071745;28;20543;-72
2023/01/24 01:23:38;;;;;;;21.40;9.40;;;1.20;99.90;;;;;;5053458;28;20444;-71
2023/01/24 01:26:07;;;;;;;23.20;8.57;;;1.30;99.90;;;;;;5067118;28;20930;-71
2023/01/24 01:28:32;;;;;;;16.97;7.70;;;1.20;99.90;;;;;;5065349;28;20574;-71
2023/01/24 01:30:58;;;;;;;19.90;7.90;;;1.20;99.90;;;;;;5071887;28;20424;-71
2023/01/24 01:33:24;;;;;;;19.43;8.07;;;1.20;99.90;;;;;;5073382;28;20172;-71
2023/01/24 01:35:51;;;;;;;15.77;8.47;;;1.30;99.90;;;;;;5055677;28;20423;-72
2023/01/24 01:38:18;;;;;;;17.27;7.93;;;1.20;99.90;;;;;;5053699;28;20431;-71
2023/01/24 01:40:44;;;;;;;16.67;8.70;;;1.20;99.90;;;;;;5056285;28;20896;-71
2023/01/24 01:43:14;;;;;;;15.13;7.70;;;1.20;99.90;;;;;;5064448;28;20431;-71
2023/01/24 01:45:49;;;;;;;17.67;8.43;;;1.20;99.90;;;;;;5066452;28;20269;-73
2023/01/24 01:48:17;;;;;;;18.80;8.00;;;1.20;99.90;;;;;;5070393;28;20424;-72
2023/01/24 01:51:15;;;;;;;16.23;8.63;;;1.20;99.90;;;;;;5070683;28;20522;-71
2023/01/24 01:53:49;;;;;;;12.20;7.27;;;1.20;99.90;;;;;;5048079;28;20501;-71
2023/01/24 01:56:23;;;;;;;13.77;7.27;;;1.20;99.90;;;;;;5053113;28;20404;-71
2023/01/24 01:58:49;;;;;;;18.70;7.20;;;1.20;99.90;;;;;;5053609;28;20432;-72
2023/01/24 02:01:14;;;;;;;21.40;8.43;;;1.20;99.90;;;;;;5072190;28;20826;-71
2023/01/24 02:03:48;;;;;;;16.93;8.37;;;1.20;99.90;;;;;;5053158;28;20178;-71
2023/01/24 02:06:58;;;;;;;17.63;7.60;;;1.20;99.90;;;;;;5067292;28;20260;-71
2023/01/24 02:09:28;;;;;;;18.87;8.03;;;1.10;99.90;;;;;;5053155;28;20473;-71
2023/01/24 02:11:59;;;;;;;14.37;7.70;;;1.20;99.90;;;;;;5072130;28;20421;-71
2023/01/24 02:17:11;;;;;;;21.80;9.30;;;1.20;99.90;;;;;;5062815;28;20415;-71
2023/01/24 02:20:06;;;;;;;20.53;8.83;;;1.20;99.90;;;;;;5052828;28;20424;-71
2023/01/24 02:22:53;;;;;;;16.93;7.10;;;1.10;99.90;;;;;;5066155;28;20213;-72
2023/01/24 02:25:34;;;;;;;16.67;8.53;;;1.10;99.90;;;;;;5063405;28;20405;-72
2023/01/24 02:28:02;;;;;;;18.00;8.30;;;1.10;99.90;;;;;;5070676;28;20457;-71
2023/01/24 02:30:27;;;;;;;15.77;8.27;;;1.10;99.90;;;;;;5071145;28;20403;-71
2023/01/24 02:32:53;;;;;;;15.10;8.10;;;1.10;99.90;;;;;;5052298;28;20907;-71
2023/01/24 02:35:27;;;;;;;20.87;9.80;;;1.10;99.90;;;;;;5052568;28;20189;-71
2023/01/24 02:37:55;;;;;;;18.83;8.43;;;1.10;99.90;;;;;;5071976;28;20187;-71
2023/01/24 02:40:22;;;;;;;18.00;8.93;;;1.10;99.90;;;;;;5058746;28;20574;-72
2023/01/24 02:42:48;;;;;;;21.60;9.13;;;1.10;99.90;;;;;;5063792;28;20468;-72
2023/01/24 02:45:23;;;;;;;16.50;7.17;;;1.10;99.90;;;;;;5053714;28;20443;-72
2023/01/24 02:47:50;;;;;;;16.83;8.80;;;1.10;99.90;;;;;;5062958;28;20495;-72
2023/01/24 02:50:18;;;;;;;16.40;9.13;;;1.10;99.90;;;;;;5052553;28;20408;-72
2023/01/24 02:55:28;;;;;;;19.20;9.20;;;1.10;99.90;;;;;;5052919;28;20473;-72
2023/01/24 02:58:07;;;;;;;25.37;9.13;;;1.20;99.90;;;;;;5052064;28;20490;-72
2023/01/24 03:00:39;;;;;;;19.53;9.53;;;1.10;99.90;;;;;;5066075;28;20400;-72
2023/01/24 03:03:06;;;;;;;19.20;7.70;;;1.10;99.90;;;;;;5069159;28;20494;-72
2023/01/24 03:05:39;;;;;;;20.80;8.77;;;1.10;99.90;;;;;;5060866;28;20480;-72
2023/01/24 03:08:06;;;;;;;20.83;9.50;;;1.10;99.90;;;;;;5055425;28;20435;-72
2023/01/24 03:10:32;;;;;;;16.53;8.00;;;1.10;99.90;;;;;;5051975;28;20419;-72
2023/01/24 03:34:50;;;;;;;16.50;9.10;;;1.10;99.90;;;;;;5071695;28;20922;-72
2023/01/24 03:39:53;;;;;;;19.13;9.40;;;1.10;99.90;;;;;;5068524;28;20424;-72
2023/01/24 03:40:09;;;;;;;23.43;9.90;;;1.10;99.90;;;;;;5064166;28;20566;-72
2023/01/24 03:42:36;;;;;;;13.43;8.17;;;1.10;99.90;;;;;;5063941;28;20472;-72
2023/01/24 03:45:03;;;;;;;20.40;9.87;;;1.10;99.90;;;;;;5064202;28;20449;-71
2023/01/24 03:47:29;;;;;;;17.87;9.43;;;1.10;99.90;;;;;;5071203;28;20416;-72
2023/01/24 03:52:38;;;;;;;15.93;8.37;;;1.10;99.90;;;;;;5060224;28;20187;-72
2023/01/24 03:55:04;;;;;;;15.53;8.67;;;1.10;99.90;;;;;;5057353;28;20598;-72
2023/01/24 03:57:30;;;;;;;22.20;8.93;;;1.10;99.90;;;;;;5061817;28;20208;-72
2023/01/24 03:59:56;;;;;;;16.10;8.03;;;1.10;99.90;;;;;;5066333;28;20809;-72
2023/01/24 04:02:22;;;;;;;13.03;7.17;;;1.10;99.90;;;;;;5064345;28;20251;-72
2023/01/24 04:07:32;;;;;;;24.13;8.67;;;1.10;99.90;;;;;;5070824;28;20446;-72
2023/01/24 04:09:58;;;;;;;20.33;8.60;;;1.10;99.90;;;;;;5052357;28;20452;-72
2023/01/24 04:12:24;;;;;;;17.87;9.50;;;1.10;99.90;;;;;;5060622;28;20184;-72
2023/01/24 04:14:50;;;;;;;18.10;8.40;;;1.10;99.90;;;;;;5051820;28;20417;-72
2023/01/24 04:17:16;;;;;;;18.37;7.87;;;1.10;99.90;;;;;;5052818;28;20811;-71
2023/01/24 04:19:42;;;;;;;22.50;8.20;;;1.20;99.90;;;;;;5069197;28;20192;-72
2023/01/24 04:22:07;;;;;;;20.17;9.20;;;1.10;99.90;;;;;;5058684;28;20198;-72
2023/01/24 04:24:33;;;;;;;18.47;9.37;;;1.10;99.90;;;;;;5055646;28;20177;-72
2023/01/24 04:26:58;;;;;;;26.40;10.10;;;1.10;99.90;;;;;;5071231;28;20181;-71
2023/01/24 04:29:24;;;;;;;23.63;8.03;;;1.10;99.90;;;;;;5065303;28;20181;-72
2023/01/24 04:31:50;;;;;;;16.37;8.67;;;1.10;99.90;;;;;;5054272;28;20207;-72
2023/01/24 04:34:15;;;;;;;18.40;8.20;;;1.10;99.90;;;;;;5063809;28;20213;-71
2023/01/24 04:36:41;;;;;;;19.80;8.03;;;1.10;99.90;;;;;;5059784;28;20193;-72
2023/01/24 04:39:06;;;;;;;19.00;8.27;;;1.10;99.90;;;;;;5065007;28;20272;-72
2023/01/24 04:41:32;;;;;;;19.80;9.93;;;1.10;99.90;;;;;;5061540;28;20677;-72
2023/01/24 04:43:57;;;;;;;20.27;8.57;;;1.00;99.90;;;;;;5056616;28;20181;-72
2023/01/24 04:46:23;;;;;;;22.40;9.67;;;1.00;99.90;;;;;;5064894;28;20180;-72
2023/01/24 04:48:48;;;;;;;23.40;9.77;;;1.10;99.90;;;;;;5052551;28;20188;-72
2023/01/24 04:51:14;;;;;;;21.57;9.80;;;1.10;99.90;;;;;;5061558;28;20181;-72
2023/01/24 04:53:40;;;;;;;18.90;8.90;;;1.10;99.90;;;;;;5052236;28;20196;-71
2023/01/24 04:56:07;;;;;;;17.27;7.67;;;1.00;99.90;;;;;;5050530;28;20665;-72
2023/01/24 04:58:33;;;;;;;16.43;7.20;;;1.10;99.90;;;;;;5054879;28;20462;-71
2023/01/24 05:00:59;;;;;;;22.43;9.03;;;1.10;99.90;;;;;;5069782;28;20415;-71
2023/01/24 05:03:25;;;;;;;13.43;7.20;;;1.10;99.90;;;;;;5051920;28;20524;-72
2023/01/24 05:05:51;;;;;;;20.70;9.17;;;1.10;99.90;;;;;;5061820;28;20169;-72
2023/01/24 05:08:17;;;;;;;26.00;9.40;;;1.10;99.90;;;;;;5070484;28;20182;-72
2023/01/24 05:10:42;;;;;;;14.63;8.17;;;1.10;99.90;;;;;;5058724;28;20420;-72
2023/01/24 05:13:08;;;;;;;16.00;7.37;;;1.10;99.90;;;;;;5062904;28;20182;-72
2023/01/24 05:15:34;;;;;;;21.80;9.60;;;1.10;99.90;;;;;;5061417;28;20230;-71
2023/01/24 05:18:00;;;;;;;13.73;7.87;;;1.10;99.90;;;;;;5064062;28;20435;-72
2023/01/24 05:20:25;;;;;;;17.90;9.07;;;1.10;99.90;;;;;;5061300;28;20177;-72
2023/01/24 05:22:51;;;;;;;23.83;9.47;;;1.10;99.90;;;;;;5057064;28;20259;-72
2023/01/24 05:25:16;;;;;;;16.73;8.90;;;1.10;99.90;;;;;;5062825;28;20185;-72
2023/01/24 05:27:43;;;;;;;23.37;9.83;;;1.10;99.90;;;;;;5070996;28;20544;-72
2023/01/24 05:30:09;;;;;;;22.43;8.63;;;1.10;99.90;;;;;;5071752;28;20260;-72
2023/01/24 05:32:35;;;;;;;25.10;8.57;;;1.10;99.90;;;;;;5055562;28;20518;-72
2023/01/24 05:35:00;;;;;;;18.60;9.30;;;1.10;99.90;;;;;;5053619;28;20511;-71
2023/01/24 05:37:26;;;;;;;18.90;8.13;;;1.10;99.90;;;;;;5067083;28;20186;-72
2023/01/24 05:39:51;;;;;;;20.53;10.43;;;1.10;99.90;;;;;;5064031;28;20181;-72
2023/01/24 05:42:17;;;;;;;22.07;9.80;;;1.10;99.90;;;;;;5068968;28;20209;-72
2023/01/24 05:44:43;;;;;;;17.00;8.73;;;1.10;99.90;;;;;;5053198;28;20627;-72
2023/01/24 05:47:08;;;;;;;17.67;8.83;;;1.10;99.90;;;;;;5066932;28;20782;-72
2023/01/24 05:49:34;;;;;;;27.27;11.50;;;1.10;99.90;;;;;;5053435;28;20293;-72
2023/01/24 05:51:59;;;;;;;21.70;9.67;;;1.10;99.90;;;;;;5055863;28;20189;-72
2023/01/24 05:54:25;;;;;;;23.53;10.07;;;1.10;99.90;;;;;;5063181;28;20240;-72
2023/01/24 05:56:50;;;;;;;19.07;10.50;;;1.10;99.90;;;;;;5053379;28;20189;-72
2023/01/24 05:59:16;;;;;;;20.63;10.17;;;1.00;99.90;;;;;;5057341;28;20252;-72
2023/01/24 06:01:41;;;;;;;27.00;10.40;;;1.00;99.90;;;;;;5072944;28;20216;-72
2023/01/24 06:04:07;;;;;;;18.63;9.37;;;1.00;99.90;;;;;;5072394;28;20606;-72
2023/01/24 06:06:33;;;;;;;22.47;10.27;;;1.10;99.90;;;;;;5063946;28;20672;-72
2023/01/24 06:08:58;;;;;;;19.90;9.87;;;1.10;99.90;;;;;;5073040;28;20247;-72
2023/01/24 06:11:27;;;;;;;21.50;10.87;;;1.00;99.90;;;;;;5069464;28;20622;-72
2023/01/24 06:13:53;;;;;;;20.60;9.37;;;1.00;99.90;;;;;;5056432;28;20183;-72
2023/01/24 06:16:21;;;;;;;28.53;12.10;;;1.10;99.90;;;;;;5056936;28;20424;-72
2023/01/24 06:18:48;;;;;;;25.33;11.90;;;1.00;99.90;;;;;;5063683;28;20522;-72
2023/01/24 06:21:33;;;;;;;18.67;10.07;;;1.00;99.90;;;;;;5060112;28;20968;-72
2023/01/24 06:23:59;;;;;;;20.83;10.37;;;1.00;99.90;;;;;;5053186;28;20419;-72
2023/01/24 06:26:24;;;;;;;29.80;10.60;;;1.00;99.90;;;;;;5066108;28;20408;-72
2023/01/24 06:28:50;;;;;;;29.67;12.43;;;1.00;99.90;;;;;;5067393;28;20447;-72
2023/01/24 06:31:57;;;;;;;20.10;9.70;;;1.00;99.90;;;;;;5072109;28;20189;-72
2023/01/24 06:34:23;;;;;;;31.50;12.50;;;1.00;99.90;;;;;;5056044;28;20173;-72
2023/01/24 06:36:58;;;;;;;32.13;11.50;;;1.00;99.90;;;;;;5065946;28;20496;-72
2023/01/24 06:39:24;;;;;;;25.90;10.67;;;1.00;99.90;;;;;;5070053;28;20180;-72
2023/01/24 06:41:50;;;;;;;20.00;9.93;;;1.00;99.90;;;;;;5066042;28;21153;-72
2023/01/24 06:44:16;;;;;;;25.37;10.77;;;1.00;99.90;;;;;;5071187;28;20181;-72
2023/01/24 06:46:42;;;;;;;19.50;11.03;;;1.00;99.90;;;;;;5071494;28;20272;-72
2023/01/24 06:49:10;;;;;;;30.13;11.20;;;1.00;99.90;;;;;;5064718;28;20177;-72
2023/01/24 06:51:35;;;;;;;29.93;11.17;;;1.00;99.90;;;;;;5051615;28;20227;-72
2023/01/24 06:54:01;;;;;;;18.97;10.07;;;1.00;99.90;;;;;;5070145;28;20774;-72
2023/01/24 06:56:27;;;;;;;24.37;10.23;;;1.00;99.90;;;;;;5058401;28;20181;-72
2023/01/24 06:58:52;;;;;;;19.50;10.67;;;1.00;99.90;;;;;;5054759;28;20208;-72
2023/01/24 07:01:18;;;;;;;22.17;10.57;;;1.10;99.90;;;;;;5070632;28;20197;-73
2023/01/24 07:03:43;;;;;;;23.60;11.60;;;1.00;99.90;;;;;;5050963;28;20252;-73
2023/01/24 07:06:09;;;;;;;23.77;12.30;;;1.00;99.90;;;;;;5049710;28;20174;-73
2023/01/24 07:08:35;;;;;;;29.03;10.47;;;1.10;99.90;;;;;;5056226;28;20236;-73
2023/01/24 07:11:00;;;;;;;28.00;10.70;;;1.10;99.90;;;;;;5070014;28;20246;-73
2023/01/24 07:13:26;;;;;;;22.60;10.03;;;1.10;99.90;;;;;;5063488;28;20659;-73
2023/01/24 07:15:52;;;;;;;21.83;10.20;;;1.10;99.90;;;;;;5058403;28;20170;-73
2023/01/24 07:18:19;;;;;;;20.57;10.60;;;1.10;99.90;;;;;;5057290;28;20510;-73
2023/01/24 07:20:45;;;;;;;21.53;10.40;;;1.10;99.90;;;;;;5058530;28;20665;-73
2023/01/24 07:23:31;;;;;;;25.07;10.53;;;1.10;99.90;;;;;;5069662;28;20516;-73
2023/01/24 07:25:56;;;;;;;23.73;10.60;;;1.10;99.90;;;;;;5057302;28;20470;-73
2023/01/24 07:28:22;;;;;;;20.77;9.50;;;1.10;99.90;;;;;;5070563;28;20813;-73
2023/01/24 07:30:49;;;;;;;19.17;9.30;;;1.10;99.90;;;;;;5065827;28;20638;-73
2023/01/24 07:33:15;;;;;;;24.27;10.73;;;1.10;99.90;;;;;;5050437;28;20710;-73
2023/01/24 07:35:42;;;;;;;30.47;12.00;;;1.10;99.90;;;;;;5049996;28;20499;-73
2023/01/24 07:38:08;;;;;;;22.73;10.07;;;1.10;99.90;;;;;;5050240;28;20424;-72
2023/01/24 07:40:35;;;;;;;22.23;8.83;;;1.10;99.90;;;;;;5050322;28;20515;-73
2023/01/24 07:43:01;;;;;;;26.40;10.20;;;1.10;99.90;;;;;;5050144;28;20518;-73
2023/01/24 07:45:27;;;;;;;19.27;10.37;;;1.20;99.90;;;;;;5059872;28;20947;-73
2023/01/24 07:47:57;;;;;;;20.33;10.53;;;1.20;99.90;;;;;;5059646;28;20680;-73
2023/01/24 07:50:24;;;;;;;16.07;8.50;;;1.20;99.90;;;;;;5054151;28;20411;-73
2023/01/24 07:52:53;;;;;;;22.27;8.70;;;1.20;99.90;;;;;;5058743;28;20420;-72
2023/01/24 07:55:20;;;;;;;14.70;8.17;;;1.20;99.90;;;;;;5053930;28;20427;-73
2023/01/24 07:57:46;;;;;;;13.93;8.53;;;1.20;99.90;;;;;;5069513;28;20526;-73
2023/01/24 08:00:13;;;;;;;22.27;9.40;;;1.20;99.90;;;;;;5069873;28;20761;-72
2023/01/24 08:02:43;;;;;;;21.40;10.07;;;1.20;99.90;;;;;;5064175;28;20545;-73
2023/01/24 08:05:08;;;;;;;26.50;10.43;;;1.20;99.90;;;;;;5069981;28;20505;-73
2023/01/24 08:07:34;;;;;;;17.57;8.33;;;1.20;99.90;;;;;;5059855;28;20511;-73
2023/01/24 08:10:00;;;;;;;17.10;8.53;;;1.30;99.90;;;;;;5054605;28;20258;-73
2023/01/24 08:12:25;;;;;;;24.60;9.77;;;1.30;99.90;;;;;;5069513;28;20617;-73
2023/01/24 08:14:51;;;;;;;21.70;8.50;;;1.30;99.90;;;;;;5050906;28;20186;-73
2023/01/24 08:17:17;;;;;;;24.00;9.53;;;1.30;99.90;;;;;;5072064;28;20293;-73
2023/01/24 08:19:43;;;;;;;20.50;9.83;;;1.30;99.90;;;;;;5068037;28;20189;-73
2023/01/24 08:22:08;;;;;;;18.23;8.47;;;1.30;99.90;;;;;;5061434;28;20240;-73
2023/01/24 08:24:34;;;;;;;29.03;7.40;;;1.30;99.90;;;;;;5051950;28;20638;-73
2023/01/24 08:27:02;;;;;;;19.07;7.63;;;1.30;99.90;;;;;;5062232;28;20182;-73
2023/01/24 08:29:28;;;;;;;18.93;7.37;;;1.30;99.90;;;;;;5051886;28;20181;-73
2023/01/24 08:31:54;;;;;;;20.13;7.90;;;1.40;99.90;;;;;;5069624;28;20501;-73
2023/01/24 08:34:20;;;;;;;17.47;9.73;;;1.40;99.90;;;;;;5056322;28;20426;-73
2023/01/24 08:36:45;;;;;;;18.63;8.73;;;1.40;99.90;;;;;;5067466;28;21053;-73
2023/01/24 08:39:11;;;;;;;21.40;9.00;;;1.40;99.90;;;;;;5067388;28;20177;-73
2023/01/24 08:41:37;;;;;;;30.17;8.43;;;1.50;99.90;;;;;;5058495;28;20677;-73
2023/01/24 08:44:04;;;;;;;17.00;8.00;;;1.50;99.90;;;;;;5055769;28;20169;-73
2023/01/24 08:46:31;;;;;;;19.70;9.87;;;1.50;99.90;;;;;;5056321;28;20177;-73
2023/01/24 08:48:57;;;;;;;25.87;11.17;;;1.50;99.90;;;;;;5068305;28;20455;-73
2023/01/24 08:51:23;;;;;;;30.40;9.80;;;1.50;99.90;;;;;;5069086;28;20419;-73
2023/01/24 08:53:48;;;;;;;25.47;10.17;;;1.50;99.90;;;;;;5066655;28;20809;-73
2023/01/24 08:56:14;;;;;;;28.07;10.07;;;1.50;99.90;;;;;;5049886;28;20239;-73
2023/01/24 08:58:40;;;;;;;19.33;8.30;;;1.60;99.90;;;;;;5054365;28;20951;-72
2023/01/24 09:01:07;;;;;;;22.50;10.10;;;1.60;99.90;;;;;;5072815;28;20195;-73
2023/01/24 09:03:32;;;;;;;17.00;7.80;;;1.60;99.90;;;;;;5068602;28;20181;-73
2023/01/24 09:05:58;;;;;;;20.67;9.13;;;1.60;99.90;;;;;;5073640;28;20739;-73
2023/01/24 09:08:24;;;;;;;18.40;8.77;;;1.60;99.90;;;;;;5057232;28;20182;-73
2023/01/24 09:10:49;;;;;;;25.13;8.37;;;1.60;99.90;;;;;;5061764;28;20274;-73
2023/01/24 09:13:15;;;;;;;21.83;9.10;;;1.60;99.90;;;;;;5058803;28;20217;-73
2023/01/24 09:15:41;;;;;;;20.97;9.23;;;1.60;99.90;;;;;;5060164;28;20593;-73
2023/01/24 09:18:07;;;;;;;26.90;8.73;;;1.50;99.90;;;;;;5073079;28;20652;-73
2023/01/24 09:20:32;;;;;;;21.77;7.57;;;1.60;99.90;;;;;;5065486;28;20241;-73
2023/01/24 09:22:58;;;;;;;16.37;8.40;;;1.60;99.90;;;;;;5065694;28;20619;-73
2023/01/24 09:25:24;;;;;;;23.33;8.67;;;1.70;99.90;;;;;;5060783;28;20187;-73
2023/01/24 09:27:54;;;;;;;20.33;9.10;;;1.60;99.90;;;;;;5064521;28;20208;-73
2023/01/24 09:30:20;;;;;;;19.00;8.63;;;1.60;99.90;;;;;;5070839;28;20829;-73
2023/01/24 09:32:46;;;;;;;14.13;7.70;;;1.70;99.90;;;;;;5053161;28;20461;-73
2023/01/24 09:35:11;;;;;;;20.80;7.83;;;1.70;99.90;;;;;;5065661;28;20411;-73
2023/01/24 09:37:37;;;;;;;16.53;8.20;;;1.70;99.90;;;;;;5053816;28;20211;-73
2023/01/24 09:40:03;;;;;;;15.80;8.37;;;1.70;99.90;;;;;;5065573;28;20189;-73
2023/01/24 09:42:44;;;;;;;20.30;8.00;;;1.70;99.90;;;;;;5072491;28;20213;-73
2023/01/24 09:45:32;;;;;;;16.20;8.07;;;1.70;99.90;;;;;;5071275;28;20421;-73
2023/01/24 09:48:02;;;;;;;17.80;8.50;;;1.80;99.90;;;;;;5061362;28;20404;-73
2023/01/24 09:50:49;;;;;;;17.63;9.00;;;1.80;99.90;;;;;;5052682;28;20424;-73
2023/01/24 09:53:31;;;;;;;15.13;7.83;;;1.80;99.90;;;;;;5065512;28;20902;-74
2023/01/24 09:55:59;;;;;;;12.97;7.27;;;1.80;99.90;;;;;;5053114;28;20456;-73
2023/01/24 09:58:31;;;;;;;13.27;7.70;;;1.80;99.90;;;;;;5055599;28;20443;-73
2023/01/24 10:01:17;;;;;;;18.63;8.90;;;1.80;99.90;;;;;;5072237;28;20640;-73
2023/01/24 10:03:43;;;;;;;16.33;6.77;;;1.80;99.90;;;;;;5071787;28;20439;-74
2023/01/24 10:06:30;;;;;;;15.63;8.10;;;1.80;99.90;;;;;;5072604;28;20426;-73
2023/01/24 10:09:12;;;;;;;21.90;8.63;;;1.80;99.90;;;;;;5072930;28;20169;-72
2023/01/24 10:11:43;;;;;;;16.07;7.97;;;1.90;99.90;;;;;;5052943;28;20423;-73
2023/01/24 10:14:37;;;;;;;21.30;7.70;;;1.90;99.90;;;;;;5056873;28;20443;-73
2023/01/24 10:17:38;;;;;;;30.40;7.73;;;1.90;99.90;;;;;;5062466;28;20542;-73
2023/01/24 10:20:27;;;;;;;16.47;7.17;;;1.90;99.90;;;;;;5049999;28;20511;-73
2023/01/24 10:23:11;;;;;;;13.80;7.73;;;2.00;99.90;;;;;;5052894;28;20480;-73
2023/01/24 10:25:49;;;;;;;19.27;7.90;;;2.10;99.90;;;;;;5051056;28;20943;-74
2023/01/24 10:28:25;;;;;;;24.07;8.63;;;2.10;99.90;;;;;;5071513;28;20514;-74
2023/01/24 10:31:18;;;;;;;14.30;7.20;;;2.10;99.90;;;;;;5066273;28;20450;-74
2023/01/24 10:33:49;;;;;;;17.37;8.83;;;2.10;99.90;;;;;;5057430;28;20502;-73
2023/01/24 10:36:37;;;;;;;11.83;6.47;;;2.10;99.90;;;;;;5064083;28;20549;-74
2023/01/24 10:39:04;;;;;;;17.00;6.67;;;2.10;99.90;;;;;;5066867;28;20420;-73
2023/01/24 10:41:32;;;;;;;14.00;8.33;;;2.10;99.90;;;;;;5052491;28;20471;-74
2023/01/24 10:44:14;;;;;;;21.63;7.70;;;2.10;99.90;;;;;;5069854;28;20444;-74
2023/01/24 10:46:51;;;;;;;14.87;6.80;;;2.10;99.90;;;;;;5072788;28;20476;-74
2023/01/24 10:49:24;;;;;;;17.70;6.97;;;2.10;99.90;;;;;;5051942;28;20545;-73
2023/01/24 10:52:09;;;;;;;14.97;8.17;;;2.10;99.90;;;;;;5051955;28;20424;-73
2023/01/24 10:55:08;;;;;;;26.50;9.93;;;2.10;99.90;;;;;;5052138;28;20407;-73
2023/01/24 10:57:42;;;;;;;12.10;6.73;;;2.20;99.90;;;;;;5051776;28;20489;-74
2023/01/24 11:00:34;;;;;;;20.07;8.03;;;2.20;99.90;;;;;;5068741;28;20419;-73
2023/01/24 11:03:16;;;;;;;20.30;7.57;;;2.20;99.90;;;;;;5065516;28;20459;-73
2023/01/24 11:05:51;;;;;;;18.03;7.57;;;2.20;99.90;;;;;;5072023;28;20502;-73
2023/01/24 11:08:19;;;;;;;12.47;7.50;;;2.20;99.90;;;;;;5054939;28;20948;-73
2023/01/24 11:10:45;;;;;;;12.27;6.40;;;2.20;99.90;;;;;;5051969;28;20452;-74
2023/01/24 11:13:34;;;;;;;13.10;7.20;;;2.30;99.90;;;;;;5051305;28;20455;-74
2023/01/24 11:16:02;;;;;;;20.47;8.67;;;2.30;99.90;;;;;;5051875;28;20412;-74
2023/01/24 11:18:29;;;;;;;11.60;6.20;;;2.30;99.90;;;;;;5051954;28;20462;-74
2023/01/24 11:21:13;;;;;;;12.57;7.23;;;2.30;99.90;;;;;;5065263;28;21043;-74
2023/01/24 11:23:40;;;;;;;23.20;8.30;;;2.30;99.90;;;;;;5061996;28;20427;-73
2023/01/24 11:26:23;;;;;;;19.13;8.47;;;2.30;99.90;;;;;;5068756;28;20962;-74
2023/01/24 11:29:05;;;;;;;17.13;6.70;;;2.40;99.90;;;;;;5071573;28;20420;-74
2023/01/24 11:31:44;;;;;;;12.77;7.03;;;2.40;99.90;;;;;;5060491;28;20430;-74
2023/01/24 11:34:17;;;;;;;13.57;6.80;;;2.40;99.90;;;;;;5068280;28;20477;-73
2023/01/24 11:37:01;;;;;;;13.50;6.20;;;2.40;99.90;;;;;;5071618;28;20431;-74
2023/01/24 11:39:52;;;;;;;15.80;8.07;;;2.40;99.90;;;;;;5067477;28;20427;-74
2023/01/24 11:42:42;;;;;;;10.47;5.87;;;2.40;99.90;;;;;;5056856;28;20459;-74
2023/01/24 11:45:37;;;;;;;14.63;7.60;;;2.40;99.90;;;;;;5056586;28;20417;-74
2023/01/24 11:48:18;;;;;;;13.77;6.10;;;2.40;99.90;;;;;;5060011;28;20415;-74
2023/01/24 11:51:05;;;;;;;16.43;5.67;;;2.50;99.90;;;;;;5051225;28;20453;-74
2023/01/24 11:53:31;;;;;;;16.53;6.80;;;2.50;99.90;;;;;;5054201;28;20424;-74
2023/01/24 11:56:21;;;;;;;17.13;6.47;;;2.40;99.90;;;;;;5061712;28;20474;-74
2023/01/24 11:59:05;;;;;;;9.40;5.33;;;2.50;99.90;;;;;;5064947;28;20202;-75
2023/01/24 12:01:37;;;;;;;12.70;5.97;;;2.50;99.90;;;;;;5068616;28;20466;-75
2023/01/24 12:04:27;;;;;;;13.93;6.90;;;2.50;99.90;;;;;;5052466;28;20470;-74
2023/01/24 12:07:03;;;;;;;22.53;6.83;;;2.50;99.90;;;;;;5051667;28;20784;-74
2023/01/24 12:10:04;;;;;;;11.70;5.27;;;2.50;99.90;;;;;;5051514;28;20549;-74
2023/01/24 12:12:40;;;;;;;14.30;5.80;;;2.50;99.90;;;;;;5042729;28;20432;-75
2023/01/24 12:15:36;;;;;;;15.03;6.03;;;2.50;99.90;;;;;;5057840;28;20423;-74
2023/01/24 12:18:23;;;;;;;9.33;4.63;;;2.50;99.90;;;;;;5064844;28;20416;-75
2023/01/24 12:21:03;;;;;;;14.50;6.40;;;2.50;99.90;;;;;;5056616;28;20419;-74
2023/01/24 12:23:52;;;;;;;12.00;5.33;;;2.50;99.90;;;;;;5061596;28;20900;-74
2023/01/24 12:26:21;;;;;;;8.77;5.20;;;2.50;99.90;;;;;;5057507;28;20426;-74
2023/01/24 12:29:10;;;;;;;9.27;5.97;;;2.50;99.90;;;;;;5071312;28;20455;-74
2023/01/24 12:31:46;;;;;;;15.47;5.70;;;2.50;99.90;;;;;;5061140;28;20462;-73
2023/01/24 12:34:29;;;;;;;14.00;5.20;;;2.50;99.90;;;;;;5056430;28;20892;-74
2023/01/24 12:37:02;;;;;;;12.50;5.90;;;2.50;99.90;;;;;;5062093;28;20408;-74
2023/01/24 12:39:41;;;;;;;9.30;5.20;;;2.50;99.90;;;;;;5063044;28;20466;-74
2023/01/24 12:42:21;;;;;;;12.77;5.77;;;2.30;99.90;;;;;;5074641;28;20462;-74
2023/01/24 12:45:03;;;;;;;9.43;5.50;;;2.50;99.90;;;;;;5062417;28;20454;-73
2023/01/24 12:47:44;;;;;;;12.83;5.90;;;2.50;99.90;;;;;;5062223;28;20419;-74
2023/01/24 12:50:18;;;;;;;7.53;4.13;;;2.50;99.90;;;;;;5059119;28;20863;-74
2023/01/24 12:52:50;;;;;;;14.30;5.80;;;2.50;99.90;;;;;;5054815;28;20492;-74
2023/01/24 12:55:21;;;;;;;11.20;5.80;;;2.50;99.90;;;;;;5072644;28;20433;-74
2023/01/24 12:57:48;;;;;;;16.40;7.10;;;2.50;99.90;;;;;;5073331;28;20853;-74
2023/01/24 13:00:20;;;;;;;8.27;4.63;;;2.50;99.90;;;;;;5063773;28;20434;-74
2023/01/24 13:03:23;;;;;;;12.63;6.03;;;2.50;99.90;;;;;;5067365;28;20496;-74
2023/01/24 13:06:24;;;;;;;13.10;6.00;;;2.50;99.90;;;;;;5058977;28;20495;-74
2023/01/24 13:08:52;;;;;;;8.00;4.43;;;2.50;99.90;;;;;;5054438;28;20549;-74
2023/01/24 13:11:22;;;;;;;11.83;6.83;;;2.50;99.90;;;;;;5057120;28;20412;-74
2023/01/24 13:14:26;;;;;;;11.77;5.77;;;2.50;99.90;;;;;;5065493;28;20404;-74
2023/01/24 13:16:58;;;;;;;7.10;4.30;;;2.50;99.90;;;;;;5052035;28;20467;-74
2023/01/24 13:19:38;;;;;;;8.10;5.13;;;2.50;99.90;;;;;;5069843;28;20407;-74
2023/01/24 13:22:25;;;;;;;12.73;5.30;;;2.50;99.90;;;;;;5074406;28;20533;-74
2023/01/24 13:25:17;;;;;;;12.53;5.70;;;2.50;99.90;;;;;;5054744;28;20416;-74
2023/01/24 13:27:56;;;;;;;11.30;5.80;;;2.50;99.90;;;;;;5070148;28;20549;-74
2023/01/24 13:31:06;;;;;;;18.60;6.23;;;2.50;99.90;;;;;;5074008;28;20833;-74
2023/01/24 13:33:54;;;;;;;10.00;5.03;;;2.60;99.90;;;;;;5035431;28;20512;-75
2023/01/24 13:36:25;;;;;;;18.20;6.07;;;2.50;99.90;;;;;;5053624;28;20451;-75
2023/01/24 13:38:52;;;;;;;10.60;5.73;;;2.50;99.90;;;;;;5056619;28;20428;-74